createdAt,value
2018-12-24T00:00:16.185Z,9.26
2018-12-24T00:00:42.287Z,9.23
2018-12-24T00:01:08.392Z,9.23
2018-12-24T00:01:34.499Z,9.28
2018-12-24T00:02:00.607Z,9.32
2018-12-24T00:02:26.717Z,9.19
2018-12-24T00:02:52.816Z,9.25
2018-12-24T00:03:18.985Z,9.23
2018-12-24T00:03:45.089Z,9.23
2018-12-24T00:04:11.219Z,9.22
2018-12-24T00:04:37.321Z,9.22
2018-12-24T00:05:03.424Z,9.19
2018-12-24T00:05:29.537Z,9.19
2018-12-24T00:05:55.640Z,9.23
2018-12-24T00:06:21.777Z,9.23
2018-12-24T00:06:47.874Z,9.16
2018-12-24T00:07:13.980Z,9.23
2018-12-24T00:07:40.081Z,9.23
2018-12-24T00:08:06.215Z,9.25
2018-12-24T00:08:32.317Z,9.25
2018-12-24T00:08:58.423Z,9.26
2018-12-24T00:09:24.528Z,9.36
2018-12-24T00:09:50.641Z,9.29
2018-12-24T00:10:16.739Z,9.37
2018-12-24T00:10:42.842Z,9.31
2018-12-24T00:11:08.952Z,9.36
2018-12-24T00:11:35.115Z,9.28
2018-12-24T00:12:06.888Z,9.37
2018-12-24T00:12:28.345Z,9.28
2018-12-24T00:12:54.450Z,9.31
2018-12-24T00:13:20.556Z,9.29
2018-12-24T00:13:46.693Z,9.32
2018-12-24T00:14:12.798Z,9.23
2018-12-24T00:14:38.900Z,9.25
2018-12-24T00:15:05.040Z,9.13
2018-12-24T00:15:31.146Z,9.13
2018-12-24T00:15:57.250Z,9.14
2018-12-24T00:16:23.384Z,9.18
2018-12-24T00:16:49.521Z,9.21
2018-12-24T00:17:15.619Z,9.21
2018-12-24T00:17:41.777Z,9.19
2018-12-24T00:18:07.886Z,9.14
2018-12-24T00:18:33.995Z,9.23
2018-12-24T00:19:00.098Z,9.18
2018-12-24T00:19:26.207Z,9.25
2018-12-24T00:19:52.343Z,9.26
2018-12-24T00:20:18.495Z,9.29
2018-12-24T00:20:44.593Z,9.26
2018-12-24T00:21:10.715Z,9.25
2018-12-24T00:21:36.821Z,9.26
2018-12-24T00:22:02.925Z,9.21
2018-12-24T00:22:29.063Z,9.22
2018-12-24T00:22:55.161Z,9.23
2018-12-24T00:23:21.269Z,9.23
2018-12-24T00:23:47.378Z,9.25
2018-12-24T00:24:13.487Z,9.21
2018-12-24T00:24:39.583Z,9.23
2018-12-24T00:25:05.692Z,9.23
2018-12-24T00:25:31.801Z,9.21
2018-12-24T00:25:57.908Z,9.25
2018-12-24T00:26:24.007Z,9.25
2018-12-24T00:26:50.111Z,9.25
2018-12-24T00:27:16.215Z,9.18
2018-12-24T00:27:42.326Z,9.14
2018-12-24T00:28:08.459Z,9.23
2018-12-24T00:28:34.569Z,9.18
2018-12-24T00:29:00.672Z,9.13
2018-12-24T00:29:26.845Z,9.14
2018-12-24T00:29:52.898Z,9.1
2018-12-24T00:30:19.005Z,9.13
2018-12-24T00:30:45.109Z,9.13
2018-12-24T00:31:11.223Z,9.11
2018-12-24T00:31:37.358Z,9.06
2018-12-24T00:32:03.463Z,9.11
2018-12-24T00:32:29.562Z,9.08
2018-12-24T00:32:55.674Z,9.04
2018-12-24T00:33:21.781Z,9.1
2018-12-24T00:33:47.914Z,9.13
2018-12-24T00:34:14.081Z,9.14
2018-12-24T00:34:40.183Z,9.13
2018-12-24T00:35:06.293Z,9.18
2018-12-24T00:35:32.401Z,9.13
2018-12-24T00:35:58.564Z,9.13
2018-12-24T00:36:24.667Z,9.18
2018-12-24T00:36:50.773Z,9.11
2018-12-24T00:37:16.879Z,9.16
2018-12-24T00:37:43.022Z,9.19
2018-12-24T00:38:09.124Z,9.16
2018-12-24T00:38:35.227Z,9.03
2018-12-24T00:39:01.337Z,9.08
2018-12-24T00:39:27.442Z,9.13
2018-12-24T00:39:53.547Z,9.08
2018-12-24T00:40:19.653Z,9.06
2018-12-24T00:40:45.748Z,9.08
2018-12-24T00:41:11.855Z,9.16
2018-12-24T00:41:37.955Z,9.16
2018-12-24T00:42:04.065Z,9.18
2018-12-24T00:42:31.619Z,9.13
2018-12-24T00:42:57.720Z,9.11
2018-12-24T00:43:23.856Z,9.13
2018-12-24T00:43:49.959Z,9.13
2018-12-24T00:44:16.071Z,9.19
2018-12-24T00:44:42.224Z,9.1
2018-12-24T00:45:08.361Z,9.14
2018-12-24T00:45:34.472Z,9.14
2018-12-24T00:46:00.577Z,9.14
2018-12-24T00:46:26.686Z,9.14
2018-12-24T00:46:52.792Z,9.13
2018-12-24T00:47:18.930Z,9.06
2018-12-24T00:47:45.032Z,9.02
2018-12-24T00:48:11.138Z,9.02
2018-12-24T00:48:37.244Z,9.1
2018-12-24T00:49:03.351Z,9.11
2018-12-24T00:49:29.450Z,9.06
2018-12-24T00:49:55.563Z,9.1
2018-12-24T00:50:21.666Z,8.99
2018-12-24T00:50:47.773Z,9.08
2018-12-24T00:51:13.929Z,9.03
2018-12-24T00:51:40.024Z,9.02
2018-12-24T00:52:06.134Z,8.99
2018-12-24T00:52:32.246Z,8.92
2018-12-24T00:52:58.400Z,8.99
2018-12-24T00:53:24.507Z,8.97
2018-12-24T00:53:50.643Z,9.04
2018-12-24T00:54:16.746Z,8.95
2018-12-24T00:54:42.851Z,8.88
2018-12-24T00:55:08.955Z,8.97
2018-12-24T00:55:35.058Z,8.95
2018-12-24T00:56:01.172Z,9.02
2018-12-24T00:56:27.277Z,8.95
2018-12-24T00:56:53.419Z,8.95
2018-12-24T00:57:19.488Z,9.04
2018-12-24T00:57:45.604Z,9
2018-12-24T00:58:11.727Z,8.94
2018-12-24T00:58:37.828Z,8.99
2018-12-24T00:59:03.938Z,8.95
2018-12-24T00:59:30.086Z,8.97
2018-12-24T00:59:56.179Z,8.99
2018-12-24T01:00:22.283Z,8.87
2018-12-24T01:00:48.389Z,8.89
2018-12-24T01:01:14.532Z,8.94
2018-12-24T01:01:40.644Z,8.91
2018-12-24T01:02:06.754Z,8.88
2018-12-24T01:02:32.854Z,8.84
2018-12-24T01:02:58.997Z,8.85
2018-12-24T01:03:25.104Z,8.92
2018-12-24T01:03:51.206Z,8.82
2018-12-24T01:04:17.311Z,8.87
2018-12-24T01:04:43.425Z,8.88
2018-12-24T01:05:09.555Z,8.94
2018-12-24T01:05:35.656Z,8.91
2018-12-24T01:06:01.759Z,9.02
2018-12-24T01:06:27.893Z,8.97
2018-12-24T01:06:53.993Z,8.94
2018-12-24T01:07:20.099Z,9
2018-12-24T01:07:46.203Z,8.99
2018-12-24T01:08:12.313Z,8.99
2018-12-24T01:08:38.452Z,8.99
2018-12-24T01:09:04.556Z,8.85
2018-12-24T01:09:30.668Z,8.91
2018-12-24T01:09:56.777Z,9.02
2018-12-24T01:10:22.881Z,9.03
2018-12-24T01:10:49.050Z,8.94
2018-12-24T01:11:15.158Z,9.03
2018-12-24T01:11:41.266Z,9
2018-12-24T01:12:07.397Z,8.97
2018-12-24T01:12:35.323Z,8.87
2018-12-24T01:13:01.432Z,8.99
2018-12-24T01:13:27.542Z,9.02
2018-12-24T01:13:53.645Z,8.89
2018-12-24T01:14:19.783Z,8.97
2018-12-24T01:14:45.884Z,8.99
2018-12-24T01:15:11.989Z,9
2018-12-24T01:15:38.106Z,8.88
2018-12-24T01:16:04.235Z,8.91
2018-12-24T01:16:30.376Z,8.88
2018-12-24T01:16:56.516Z,8.97
2018-12-24T01:17:22.721Z,8.91
2018-12-24T01:17:48.766Z,9.04
2018-12-24T01:18:14.894Z,8.88
2018-12-24T01:18:40.977Z,9.06
2018-12-24T01:19:07.112Z,8.94
2018-12-24T01:19:33.213Z,8.99
2018-12-24T01:19:59.349Z,8.95
2018-12-24T01:20:25.480Z,8.94
2018-12-24T01:20:51.590Z,9.08
2018-12-24T01:21:17.766Z,8.99
2018-12-24T01:21:43.871Z,9.02
2018-12-24T01:22:09.979Z,9.02
2018-12-24T01:22:36.124Z,9.06
2018-12-24T01:23:02.233Z,9.08
2018-12-24T01:23:28.338Z,9.06
2018-12-24T01:23:54.450Z,9.03
2018-12-24T01:24:20.547Z,9.02
2018-12-24T01:24:53.120Z,9.04
2018-12-24T01:25:19.223Z,9.02
2018-12-24T01:25:45.378Z,9.04
2018-12-24T01:26:11.481Z,9.02
2018-12-24T01:26:37.585Z,9.08
2018-12-24T01:27:03.727Z,9.02
2018-12-24T01:27:29.867Z,9.06
2018-12-24T01:27:55.965Z,9.11
2018-12-24T01:28:22.077Z,9.14
2018-12-24T01:28:48.179Z,9.1
2018-12-24T01:29:14.343Z,9.16
2018-12-24T01:29:40.445Z,9.14
2018-12-24T01:30:06.590Z,9.14
2018-12-24T01:30:32.711Z,9.13
2018-12-24T01:30:58.820Z,9.1
2018-12-24T01:31:24.954Z,9.02
2018-12-24T01:31:51.059Z,9
2018-12-24T01:32:17.162Z,9.02
2018-12-24T01:32:43.293Z,8.95
2018-12-24T01:33:09.401Z,9
2018-12-24T01:33:35.511Z,9.08
2018-12-24T01:34:01.615Z,9.06
2018-12-24T01:34:27.748Z,9.1
2018-12-24T01:34:53.849Z,9.03
2018-12-24T01:35:19.954Z,9.04
2018-12-24T01:35:46.059Z,9.04
2018-12-24T01:36:12.159Z,9.08
2018-12-24T01:36:38.269Z,9.14
2018-12-24T01:37:04.390Z,9.14
2018-12-24T01:37:30.499Z,9.16
2018-12-24T01:37:56.610Z,9.19
2018-12-24T01:38:22.779Z,9.19
2018-12-24T01:38:48.884Z,9.18
2018-12-24T01:39:14.984Z,9.1
2018-12-24T01:39:41.093Z,9.06
2018-12-24T01:40:07.199Z,9.13
2018-12-24T01:40:33.305Z,9.11
2018-12-24T01:40:59.421Z,9.1
2018-12-24T01:41:25.532Z,9.18
2018-12-24T01:41:51.631Z,9.16
2018-12-24T01:42:17.761Z,9.14
2018-12-24T01:42:44.852Z,9.14
2018-12-24T01:43:10.963Z,9.14
2018-12-24T01:43:37.099Z,9.26
2018-12-24T01:44:03.197Z,9.21
2018-12-24T01:44:29.304Z,9.14
2018-12-24T01:44:55.417Z,9.23
2018-12-24T01:45:21.520Z,9.19
2018-12-24T01:45:47.657Z,9.25
2018-12-24T01:46:13.766Z,9.23
2018-12-24T01:46:39.877Z,9.22
2018-12-24T01:47:05.975Z,9.23
2018-12-24T01:47:32.084Z,9.25
2018-12-24T01:47:58.183Z,9.19
2018-12-24T01:48:24.298Z,9.14
2018-12-24T01:48:50.402Z,9.22
2018-12-24T01:49:16.505Z,9.1
2018-12-24T01:49:42.605Z,9.18
2018-12-24T01:50:08.725Z,9.16
2018-12-24T01:50:34.837Z,9.21
2018-12-24T01:51:00.940Z,9.21
2018-12-24T01:51:27.045Z,9.21
2018-12-24T01:51:53.154Z,9.23
2018-12-24T01:52:19.258Z,9.14
2018-12-24T01:52:45.359Z,9.23
2018-12-24T01:53:11.500Z,9.23
2018-12-24T01:53:37.603Z,9.22
2018-12-24T01:54:03.711Z,9.22
2018-12-24T01:54:29.924Z,9.22
2018-12-24T01:54:55.999Z,9.21
2018-12-24T01:55:22.103Z,9.23
2018-12-24T01:55:48.240Z,9.25
2018-12-24T01:56:14.341Z,9.28
2018-12-24T01:56:40.452Z,9.36
2018-12-24T01:57:06.558Z,9.34
2018-12-24T01:57:32.661Z,9.34
2018-12-24T01:57:58.763Z,9.32
2018-12-24T01:58:24.875Z,9.39
2018-12-24T01:58:50.975Z,9.32
2018-12-24T01:59:17.084Z,9.41
2018-12-24T01:59:43.192Z,9.41
2018-12-24T02:00:09.324Z,9.4
2018-12-24T02:00:35.426Z,9.43
2018-12-24T02:01:01.530Z,9.32
2018-12-24T02:01:27.637Z,9.4
2018-12-24T02:01:53.743Z,9.4
2018-12-24T02:02:19.849Z,9.31
2018-12-24T02:02:45.987Z,9.34
2018-12-24T02:03:12.090Z,9.39
2018-12-24T02:03:38.195Z,9.37
2018-12-24T02:04:04.325Z,9.39
2018-12-24T02:04:30.489Z,9.46
2018-12-24T02:04:56.596Z,9.4
2018-12-24T02:05:22.723Z,9.37
2018-12-24T02:05:48.859Z,9.34
2018-12-24T02:06:14.972Z,9.41
2018-12-24T02:06:41.075Z,9.4
2018-12-24T02:07:07.183Z,9.47
2018-12-24T02:07:33.304Z,9.48
2018-12-24T02:07:59.403Z,9.46
2018-12-24T02:08:25.512Z,9.54
2018-12-24T02:08:51.610Z,9.47
2018-12-24T02:09:17.713Z,9.46
2018-12-24T02:09:43.843Z,9.41
2018-12-24T02:10:09.954Z,9.37
2018-12-24T02:10:36.086Z,9.4
2018-12-24T02:11:02.193Z,9.39
2018-12-24T02:11:28.299Z,9.37
2018-12-24T02:11:54.411Z,9.39
2018-12-24T02:12:20.511Z,9.37
2018-12-24T02:12:47.638Z,9.41
2018-12-24T02:13:13.742Z,9.41
2018-12-24T02:13:39.877Z,9.43
2018-12-24T02:14:05.982Z,9.43
2018-12-24T02:14:32.082Z,9.43
2018-12-24T02:14:58.227Z,9.29
2018-12-24T02:15:24.335Z,9.31
2018-12-24T02:15:50.441Z,9.41
2018-12-24T02:16:16.671Z,9.36
2018-12-24T02:16:42.723Z,9.41
2018-12-24T02:17:08.821Z,9.43
2018-12-24T02:17:34.929Z,9.41
2018-12-24T02:18:01.036Z,9.34
2018-12-24T02:18:27.141Z,9.31
2018-12-24T02:18:53.274Z,9.34
2018-12-24T02:19:19.373Z,9.4
2018-12-24T02:19:45.488Z,9.41
2018-12-24T02:20:11.581Z,9.29
2018-12-24T02:20:37.693Z,9.31
2018-12-24T02:21:03.795Z,9.26
2018-12-24T02:21:29.897Z,9.34
2018-12-24T02:21:56.002Z,9.29
2018-12-24T02:22:23.557Z,9.34
2018-12-24T02:22:49.665Z,9.39
2018-12-24T02:23:15.766Z,9.25
2018-12-24T02:23:41.874Z,9.25
2018-12-24T02:24:07.974Z,9.28
2018-12-24T02:24:34.081Z,9.32
2018-12-24T02:25:00.194Z,9.25
2018-12-24T02:25:26.294Z,9.34
2018-12-24T02:25:52.399Z,9.34
2018-12-24T02:26:18.529Z,9.36
2018-12-24T02:26:44.640Z,9.36
2018-12-24T02:27:10.736Z,9.37
2018-12-24T02:27:36.841Z,9.26
2018-12-24T02:28:02.946Z,9.25
2018-12-24T02:28:29.084Z,9.26
2018-12-24T02:28:55.191Z,9.26
2018-12-24T02:29:21.295Z,9.23
2018-12-24T02:29:47.397Z,9.28
2018-12-24T02:30:13.533Z,9.26
2018-12-24T02:30:39.644Z,9.25
2018-12-24T02:31:05.750Z,9.29
2018-12-24T02:31:31.861Z,9.37
2018-12-24T02:31:57.963Z,9.34
2018-12-24T02:32:24.148Z,9.34
2018-12-24T02:32:50.248Z,9.43
2018-12-24T02:33:16.350Z,9.31
2018-12-24T02:33:42.484Z,9.32
2018-12-24T02:34:08.591Z,9.32
2018-12-24T02:34:34.745Z,9.28
2018-12-24T02:35:00.855Z,9.32
2018-12-24T02:35:27.009Z,9.31
2018-12-24T02:35:53.215Z,9.34
2018-12-24T02:36:19.407Z,9.29
2018-12-24T02:36:45.580Z,9.34
2018-12-24T02:37:11.709Z,9.4
2018-12-24T02:37:37.917Z,9.39
2018-12-24T02:38:03.950Z,9.37
2018-12-24T02:38:30.094Z,9.43
2018-12-24T02:38:56.227Z,9.37
2018-12-24T02:39:22.329Z,9.36
2018-12-24T02:39:48.571Z,9.37
2018-12-24T02:40:14.629Z,9.39
2018-12-24T02:40:40.763Z,9.37
2018-12-24T02:41:06.903Z,9.37
2018-12-24T02:41:33.062Z,9.36
2018-12-24T02:41:59.167Z,9.32
2018-12-24T02:42:25.278Z,9.28
2018-12-24T02:42:52.438Z,9.22
2018-12-24T02:43:17.587Z,9.32
2018-12-24T02:43:43.751Z,9.25
2018-12-24T02:44:09.895Z,9.32
2018-12-24T02:44:35.997Z,9.26
2018-12-24T02:45:02.138Z,9.25
2018-12-24T02:45:28.243Z,9.26
2018-12-24T02:45:54.367Z,9.21
2018-12-24T02:46:20.509Z,9.21
2018-12-24T02:46:46.608Z,9.16
2018-12-24T02:47:12.719Z,9.14
2018-12-24T02:47:38.831Z,9.18
2018-12-24T02:48:04.931Z,9.23
2018-12-24T02:48:31.031Z,9.21
2018-12-24T02:48:57.166Z,9.16
2018-12-24T02:49:23.340Z,9.19
2018-12-24T02:49:49.552Z,9.25
2018-12-24T02:50:15.693Z,9.26
2018-12-24T02:50:41.819Z,9.29
2018-12-24T02:51:07.922Z,9.18
2018-12-24T02:51:34.052Z,9.25
2018-12-24T02:52:00.156Z,9.29
2018-12-24T02:52:26.287Z,9.39
2018-12-24T02:52:52.390Z,9.31
2018-12-24T02:53:18.496Z,9.32
2018-12-24T02:53:44.634Z,9.43
2018-12-24T02:54:10.762Z,9.36
2018-12-24T02:54:36.861Z,9.43
2018-12-24T02:55:02.966Z,9.43
2018-12-24T02:55:29.101Z,9.46
2018-12-24T02:55:55.210Z,9.41
2018-12-24T02:56:21.342Z,9.39
2018-12-24T02:56:47.444Z,9.44
2018-12-24T02:57:13.579Z,9.46
2018-12-24T02:57:39.715Z,9.43
2018-12-24T02:58:05.817Z,9.5
2018-12-24T02:58:31.922Z,9.61
2018-12-24T02:58:58.027Z,9.43
2018-12-24T02:59:24.135Z,9.44
2018-12-24T02:59:50.244Z,9.51
2018-12-24T03:00:16.380Z,9.56
2018-12-24T03:00:42.482Z,9.48
2018-12-24T03:01:08.594Z,9.51
2018-12-24T03:01:34.698Z,9.41
2018-12-24T03:02:00.801Z,9.43
2018-12-24T03:02:26.904Z,9.5
2018-12-24T03:02:53.011Z,9.46
2018-12-24T03:03:19.126Z,9.5
2018-12-24T03:03:45.223Z,9.54
2018-12-24T03:04:11.359Z,9.47
2018-12-24T03:04:37.468Z,9.5
2018-12-24T03:05:03.567Z,9.5
2018-12-24T03:05:29.703Z,9.41
2018-12-24T03:05:55.964Z,9.46
2018-12-24T03:06:22.014Z,9.47
2018-12-24T03:06:48.146Z,9.41
2018-12-24T03:07:14.314Z,9.5
2018-12-24T03:07:40.451Z,9.46
2018-12-24T03:08:06.581Z,9.54
2018-12-24T03:08:32.685Z,9.48
2018-12-24T03:08:58.788Z,9.47
2018-12-24T03:09:24.954Z,9.54
2018-12-24T03:09:51.058Z,9.51
2018-12-24T03:10:17.232Z,9.51
2018-12-24T03:10:43.335Z,9.54
2018-12-24T03:11:09.443Z,9.5
2018-12-24T03:11:35.544Z,9.48
2018-12-24T03:12:01.661Z,9.46
2018-12-24T03:12:27.783Z,9.48
2018-12-24T03:13:02.420Z,9.5
2018-12-24T03:13:21.983Z,9.54
2018-12-24T03:13:48.104Z,9.58
2018-12-24T03:14:14.195Z,9.56
2018-12-24T03:14:40.300Z,9.56
2018-12-24T03:15:06.408Z,9.51
2018-12-24T03:15:32.543Z,9.58
2018-12-24T03:15:58.644Z,9.64
2018-12-24T03:16:24.776Z,9.59
2018-12-24T03:16:50.882Z,9.5
2018-12-24T03:17:17.013Z,9.51
2018-12-24T03:17:43.145Z,9.4
2018-12-24T03:18:09.312Z,9.54
2018-12-24T03:18:35.444Z,9.47
2018-12-24T03:19:01.570Z,9.41
2018-12-24T03:19:27.676Z,9.48
2018-12-24T03:19:53.777Z,9.47
2018-12-24T03:20:19.916Z,9.51
2018-12-24T03:20:46.058Z,9.46
2018-12-24T03:21:12.154Z,9.51
2018-12-24T03:21:38.291Z,9.5
2018-12-24T03:22:04.427Z,9.51
2018-12-24T03:22:30.595Z,9.46
2018-12-24T03:22:56.699Z,9.48
2018-12-24T03:23:22.862Z,9.44
2018-12-24T03:23:48.964Z,9.48
2018-12-24T03:24:15.093Z,9.44
2018-12-24T03:24:41.193Z,9.43
2018-12-24T03:25:07.455Z,9.43
2018-12-24T03:25:33.538Z,9.37
2018-12-24T03:25:59.682Z,9.43
2018-12-24T03:26:25.783Z,9.44
2018-12-24T03:26:51.890Z,9.39
2018-12-24T03:27:18.051Z,9.32
2018-12-24T03:27:44.175Z,9.37
2018-12-24T03:28:10.283Z,9.41
2018-12-24T03:28:36.392Z,9.37
2018-12-24T03:29:02.496Z,9.41
2018-12-24T03:29:28.600Z,9.44
2018-12-24T03:29:54.714Z,9.44
2018-12-24T03:30:20.879Z,9.29
2018-12-24T03:30:47.045Z,9.32
2018-12-24T03:31:13.260Z,9.32
2018-12-24T03:31:39.429Z,9.28
2018-12-24T03:32:05.629Z,9.37
2018-12-24T03:32:31.809Z,9.34
2018-12-24T03:32:57.905Z,9.37
2018-12-24T03:33:24.068Z,9.36
2018-12-24T03:33:50.195Z,9.31
2018-12-24T03:34:16.325Z,9.4
2018-12-24T03:34:42.435Z,9.34
2018-12-24T03:35:08.538Z,9.34
2018-12-24T03:35:34.635Z,9.31
2018-12-24T03:36:00.745Z,9.34
2018-12-24T03:36:26.837Z,9.32
2018-12-24T03:36:52.946Z,9.34
2018-12-24T03:37:19.078Z,9.37
2018-12-24T03:37:45.231Z,9.29
2018-12-24T03:38:11.395Z,9.32
2018-12-24T03:38:37.528Z,9.28
2018-12-24T03:39:03.638Z,9.26
2018-12-24T03:39:29.763Z,9.26
2018-12-24T03:39:55.894Z,9.32
2018-12-24T03:40:22.030Z,9.25
2018-12-24T03:40:48.204Z,9.32
2018-12-24T03:41:14.311Z,9.26
2018-12-24T03:41:40.419Z,9.26
2018-12-24T03:42:06.541Z,9.32
2018-12-24T03:42:32.675Z,9.34
2018-12-24T03:42:58.778Z,9.37
2018-12-24T03:43:26.870Z,9.41
2018-12-24T03:43:52.977Z,9.43
2018-12-24T03:44:19.088Z,9.41
2018-12-24T03:44:45.250Z,9.41
2018-12-24T03:45:11.350Z,9.39
2018-12-24T03:45:37.485Z,9.4
2018-12-24T03:46:03.641Z,9.43
2018-12-24T03:46:29.748Z,9.41
2018-12-24T03:46:55.874Z,9.46
2018-12-24T03:47:21.986Z,9.41
2018-12-24T03:47:48.091Z,9.41
2018-12-24T03:48:14.193Z,9.4
2018-12-24T03:48:40.301Z,9.46
2018-12-24T03:49:06.403Z,9.44
2018-12-24T03:49:32.557Z,9.46
2018-12-24T03:49:58.667Z,9.4
2018-12-24T03:50:24.772Z,9.4
2018-12-24T03:50:50.878Z,9.34
2018-12-24T03:51:16.976Z,9.34
2018-12-24T03:51:43.086Z,9.32
2018-12-24T03:52:09.260Z,9.32
2018-12-24T03:52:35.420Z,9.31
2018-12-24T03:53:01.557Z,9.34
2018-12-24T03:53:27.694Z,9.34
2018-12-24T03:53:53.834Z,9.39
2018-12-24T03:54:19.961Z,9.26
2018-12-24T03:54:46.072Z,9.36
2018-12-24T03:55:12.175Z,9.34
2018-12-24T03:55:38.285Z,9.39
2018-12-24T03:56:04.409Z,9.32
2018-12-24T03:56:30.522Z,9.34
2018-12-24T03:56:56.659Z,9.34
2018-12-24T03:57:22.758Z,9.43
2018-12-24T03:57:48.923Z,9.36
2018-12-24T03:58:15.065Z,9.29
2018-12-24T03:58:41.221Z,9.39
2018-12-24T03:59:07.349Z,9.39
2018-12-24T03:59:33.461Z,9.31
2018-12-24T03:59:59.566Z,9.28
2018-12-24T04:00:25.770Z,9.28
2018-12-24T04:00:51.900Z,9.23
2018-12-24T04:01:18.009Z,9.32
2018-12-24T04:01:44.142Z,9.34
2018-12-24T04:02:10.256Z,9.28
2018-12-24T04:02:36.386Z,9.32
2018-12-24T04:03:02.550Z,9.36
2018-12-24T04:03:28.658Z,9.34
2018-12-24T04:03:54.785Z,9.34
2018-12-24T04:04:20.893Z,9.29
2018-12-24T04:04:46.998Z,9.34
2018-12-24T04:05:13.132Z,9.32
2018-12-24T04:05:39.267Z,9.31
2018-12-24T04:06:05.375Z,9.36
2018-12-24T04:06:31.482Z,9.23
2018-12-24T04:06:57.640Z,9.31
2018-12-24T04:07:23.783Z,9.25
2018-12-24T04:07:49.888Z,9.34
2018-12-24T04:08:16.025Z,9.19
2018-12-24T04:08:42.135Z,9.39
2018-12-24T04:09:08.238Z,9.32
2018-12-24T04:09:34.333Z,9.32
2018-12-24T04:10:00.533Z,9.25
2018-12-24T04:10:26.643Z,9.21
2018-12-24T04:10:52.745Z,9.32
2018-12-24T04:11:18.846Z,9.23
2018-12-24T04:11:44.982Z,9.28
2018-12-24T04:12:11.088Z,9.29
2018-12-24T04:12:37.225Z,9.37
2018-12-24T04:13:03.328Z,9.32
2018-12-24T04:13:31.414Z,9.31
2018-12-24T04:13:57.548Z,9.36
2018-12-24T04:14:23.688Z,9.36
2018-12-24T04:14:49.823Z,9.36
2018-12-24T04:15:15.960Z,9.37
2018-12-24T04:15:42.057Z,9.39
2018-12-24T04:16:08.169Z,9.44
2018-12-24T04:16:34.305Z,9.36
2018-12-24T04:17:00.408Z,9.31
2018-12-24T04:17:26.513Z,9.28
2018-12-24T04:17:52.617Z,9.34
2018-12-24T04:18:18.753Z,9.39
2018-12-24T04:18:44.861Z,9.29
2018-12-24T04:19:11.056Z,9.37
2018-12-24T04:19:37.209Z,9.31
2018-12-24T04:20:03.312Z,9.29
2018-12-24T04:20:29.447Z,9.34
2018-12-24T04:20:55.589Z,9.32
2018-12-24T04:21:22.827Z,9.21
2018-12-24T04:21:47.847Z,9.36
2018-12-24T04:22:13.970Z,9.28
2018-12-24T04:22:40.103Z,9.32
2018-12-24T04:23:06.209Z,9.31
2018-12-24T04:23:32.317Z,9.34
2018-12-24T04:23:58.427Z,9.34
2018-12-24T04:24:24.539Z,9.31
2018-12-24T04:24:50.668Z,9.4
2018-12-24T04:25:16.792Z,9.32
2018-12-24T04:25:42.927Z,9.32
2018-12-24T04:26:09.033Z,9.29
2018-12-24T04:26:35.221Z,9.34
2018-12-24T04:27:01.371Z,9.34
2018-12-24T04:27:27.524Z,9.36
2018-12-24T04:27:55.641Z,9.39
2018-12-24T04:28:21.810Z,9.44
2018-12-24T04:28:47.957Z,9.44
2018-12-24T04:29:14.044Z,9.31
2018-12-24T04:29:40.143Z,9.28
2018-12-24T04:30:06.309Z,9.34
2018-12-24T04:30:32.506Z,9.31
2018-12-24T04:30:58.631Z,9.32
2018-12-24T04:31:24.730Z,9.34
2018-12-24T04:31:50.862Z,9.31
2018-12-24T04:32:16.974Z,9.34
2018-12-24T04:32:43.075Z,9.32
2018-12-24T04:33:09.211Z,9.36
2018-12-24T04:33:35.324Z,9.36
2018-12-24T04:34:01.425Z,9.31
2018-12-24T04:34:27.532Z,9.34
2018-12-24T04:34:53.665Z,9.32
2018-12-24T04:35:19.768Z,9.25
2018-12-24T04:35:45.912Z,9.23
2018-12-24T04:36:12.012Z,9.26
2018-12-24T04:36:38.119Z,9.28
2018-12-24T04:37:04.254Z,9.22
2018-12-24T04:37:30.365Z,9.28
2018-12-24T04:37:56.481Z,9.26
2018-12-24T04:38:22.638Z,9.34
2018-12-24T04:38:48.739Z,9.34
2018-12-24T04:39:14.854Z,9.32
2018-12-24T04:39:41.004Z,9.31
2018-12-24T04:40:07.142Z,9.23
2018-12-24T04:40:33.273Z,9.26
2018-12-24T04:40:59.379Z,9.25
2018-12-24T04:41:25.482Z,9.28
2018-12-24T04:41:51.586Z,9.22
2018-12-24T04:42:17.698Z,9.28
2018-12-24T04:42:43.833Z,9.19
2018-12-24T04:43:09.968Z,9.23
2018-12-24T04:43:37.793Z,9.23
2018-12-24T04:44:04.611Z,9.26
2018-12-24T04:44:30.703Z,9.32
2018-12-24T04:44:56.817Z,9.32
2018-12-24T04:45:22.913Z,9.31
2018-12-24T04:45:49.053Z,9.4
2018-12-24T04:46:15.184Z,9.34
2018-12-24T04:46:41.285Z,9.34
2018-12-24T04:47:07.395Z,9.32
2018-12-24T04:47:33.494Z,9.36
2018-12-24T04:47:59.598Z,9.4
2018-12-24T04:48:25.716Z,9.36
2018-12-24T04:48:51.836Z,9.39
2018-12-24T04:49:17.965Z,9.31
2018-12-24T04:49:44.099Z,9.37
2018-12-24T04:50:10.251Z,9.36
2018-12-24T04:50:36.352Z,9.39
2018-12-24T04:51:02.455Z,9.37
2018-12-24T04:51:28.559Z,9.34
2018-12-24T04:51:54.664Z,9.36
2018-12-24T04:52:20.805Z,9.29
2018-12-24T04:52:46.913Z,9.28
2018-12-24T04:53:13.023Z,9.34
2018-12-24T04:53:39.130Z,9.37
2018-12-24T04:54:05.271Z,9.32
2018-12-24T04:54:31.425Z,9.39
2018-12-24T04:54:57.568Z,9.34
2018-12-24T04:55:23.671Z,9.28
2018-12-24T04:55:49.802Z,9.22
2018-12-24T04:56:15.939Z,9.26
2018-12-24T04:56:42.074Z,9.28
2018-12-24T04:57:08.234Z,9.21
2018-12-24T04:57:34.368Z,9.25
2018-12-24T04:58:00.451Z,9.28
2018-12-24T04:58:26.577Z,9.26
2018-12-24T04:58:52.685Z,9.26
2018-12-24T04:59:18.827Z,9.28
2018-12-24T04:59:44.964Z,9.28
2018-12-24T05:00:11.066Z,9.23
2018-12-24T05:00:37.174Z,9.31
2018-12-24T05:01:03.279Z,9.29
2018-12-24T05:01:29.385Z,9.28
2018-12-24T05:01:55.486Z,9.26
2018-12-24T05:02:21.615Z,9.34
2018-12-24T05:02:47.723Z,9.26
2018-12-24T05:03:13.853Z,9.22
2018-12-24T05:03:39.975Z,9.23
2018-12-24T05:04:06.093Z,9.28
2018-12-24T05:04:32.197Z,9.21
2018-12-24T05:04:58.306Z,9.25
2018-12-24T05:05:24.407Z,9.23
2018-12-24T05:05:50.545Z,9.26
2018-12-24T05:06:16.648Z,9.23
2018-12-24T05:06:42.749Z,9.31
2018-12-24T05:07:08.857Z,9.36
2018-12-24T05:07:34.965Z,9.29
2018-12-24T05:08:01.064Z,9.34
2018-12-24T05:08:27.173Z,9.32
2018-12-24T05:08:53.281Z,9.34
2018-12-24T05:09:19.384Z,9.43
2018-12-24T05:09:45.487Z,9.41
2018-12-24T05:10:11.593Z,9.43
2018-12-24T05:10:37.701Z,9.36
2018-12-24T05:11:03.801Z,9.36
2018-12-24T05:11:29.905Z,9.34
2018-12-24T05:11:56.018Z,9.37
2018-12-24T05:12:22.119Z,9.39
2018-12-24T05:12:48.224Z,9.34
2018-12-24T05:13:14.335Z,9.36
2018-12-24T05:13:40.926Z,9.31
2018-12-24T05:14:07.170Z,9.39
2018-12-24T05:14:33.274Z,9.37
2018-12-24T05:14:59.382Z,9.34
2018-12-24T05:15:25.488Z,9.32
2018-12-24T05:15:51.613Z,9.39
2018-12-24T05:16:17.720Z,9.43
2018-12-24T05:16:43.822Z,9.47
2018-12-24T05:17:09.934Z,9.46
2018-12-24T05:17:36.041Z,9.46
2018-12-24T05:18:02.205Z,9.4
2018-12-24T05:18:28.316Z,9.47
2018-12-24T05:18:54.416Z,9.46
2018-12-24T05:19:20.519Z,9.47
2018-12-24T05:19:46.632Z,9.44
2018-12-24T05:20:12.745Z,9.46
2018-12-24T05:20:38.835Z,9.43
2018-12-24T05:21:04.970Z,9.47
2018-12-24T05:21:31.070Z,9.48
2018-12-24T05:21:57.176Z,9.47
2018-12-24T05:22:23.285Z,9.39
2018-12-24T05:22:49.395Z,9.44
2018-12-24T05:23:15.502Z,9.47
2018-12-24T05:23:41.609Z,9.46
2018-12-24T05:24:07.715Z,9.5
2018-12-24T05:24:33.824Z,9.54
2018-12-24T05:24:59.925Z,9.47
2018-12-24T05:25:26.062Z,9.44
2018-12-24T05:25:52.161Z,9.48
2018-12-24T05:26:18.267Z,9.54
2018-12-24T05:26:44.406Z,9.59
2018-12-24T05:27:10.509Z,9.56
2018-12-24T05:27:36.611Z,9.56
2018-12-24T05:28:02.715Z,9.56
2018-12-24T05:28:28.820Z,9.55
2018-12-24T05:28:54.929Z,9.61
2018-12-24T05:29:21.077Z,9.59
2018-12-24T05:29:47.139Z,9.62
2018-12-24T05:30:13.248Z,9.61
2018-12-24T05:30:39.354Z,9.54
2018-12-24T05:31:05.466Z,9.55
2018-12-24T05:31:31.574Z,9.58
2018-12-24T05:31:57.680Z,9.5
2018-12-24T05:32:23.780Z,9.54
2018-12-24T05:32:49.885Z,9.56
2018-12-24T05:33:15.987Z,9.64
2018-12-24T05:33:42.097Z,9.59
2018-12-24T05:34:08.226Z,9.58
2018-12-24T05:34:34.327Z,9.61
2018-12-24T05:35:00.444Z,9.55
2018-12-24T05:35:26.537Z,9.58
2018-12-24T05:35:52.644Z,9.55
2018-12-24T05:36:18.749Z,9.55
2018-12-24T05:36:44.877Z,9.59
2018-12-24T05:37:11.043Z,9.48
2018-12-24T05:37:37.183Z,9.56
2018-12-24T05:38:03.289Z,9.51
2018-12-24T05:38:29.423Z,9.62
2018-12-24T05:38:55.525Z,9.58
2018-12-24T05:39:21.634Z,9.54
2018-12-24T05:39:47.733Z,9.51
2018-12-24T05:40:13.845Z,9.47
2018-12-24T05:40:39.956Z,9.46
2018-12-24T05:41:06.078Z,9.54
2018-12-24T05:41:32.186Z,9.5
2018-12-24T05:41:58.288Z,9.4
2018-12-24T05:42:24.400Z,9.46
2018-12-24T05:42:50.499Z,9.44
2018-12-24T05:43:16.608Z,9.48
2018-12-24T05:43:49.333Z,9.41
2018-12-24T05:44:10.442Z,9.48
2018-12-24T05:44:36.580Z,9.54
2018-12-24T05:45:02.720Z,9.47
2018-12-24T05:45:28.826Z,9.46
2018-12-24T05:45:54.980Z,9.43
2018-12-24T05:46:21.031Z,9.44
2018-12-24T05:46:47.161Z,9.4
2018-12-24T05:47:13.265Z,9.41
2018-12-24T05:47:39.372Z,9.41
2018-12-24T05:48:05.476Z,9.39
2018-12-24T05:48:31.583Z,9.37
2018-12-24T05:48:57.724Z,9.31